createdAt,value
2018-09-24T00:00:21.714Z,65.80
2018-09-24T00:02:51.143Z,65.80
2018-09-24T00:05:20.665Z,65.80
2018-09-24T00:07:50.171Z,66.00
2018-09-24T00:10:19.657Z,66.50
2018-09-24T00:12:49.116Z,66.50
2018-09-24T00:15:18.923Z,66.50
2018-09-24T00:17:48.375Z,66.60
2018-09-24T00:20:17.863Z,66.70
2018-09-24T00:22:47.342Z,66.50
2018-09-24T00:25:16.916Z,66.70
2018-09-24T00:27:46.382Z,67.00
2018-09-24T00:30:15.839Z,66.40
2018-09-24T00:32:45.271Z,66.20
2018-09-24T00:35:14.768Z,66.50
2018-09-24T00:37:44.323Z,66.30
2018-09-24T00:40:13.806Z,66.70
2018-09-24T00:42:43.572Z,66.50
2018-09-24T00:45:13.031Z,66.50
2018-09-24T00:47:42.487Z,66.60
2018-09-24T00:50:11.995Z,66.30
2018-09-24T00:52:41.496Z,66.40
2018-09-24T00:55:10.934Z,66.20
2018-09-24T00:57:40.413Z,66.10
2018-09-24T01:00:09.904Z,65.90
2018-09-24T01:02:39.390Z,65.80
2018-09-24T01:05:09.142Z,65.70
2018-09-24T01:07:38.627Z,65.50
2018-09-24T01:10:08.368Z,65.40
2018-09-24T01:12:37.916Z,65.40
2018-09-24T01:15:07.758Z,65.50
2018-09-24T01:17:37.236Z,65.30
2018-09-24T01:20:07.226Z,65.00
2018-09-24T01:22:36.710Z,64.90
2018-09-24T01:25:06.526Z,64.60
2018-09-24T01:27:36.606Z,64.60
2018-09-24T01:30:06.308Z,64.70
2018-09-24T01:32:35.826Z,64.60
2018-09-24T01:35:05.316Z,64.70
2018-09-24T01:37:34.814Z,64.70
2018-09-24T01:40:04.406Z,64.10
2018-09-24T01:42:33.884Z,63.90
2018-09-24T01:45:03.415Z,63.70
2018-09-24T01:47:32.937Z,63.50
2018-09-24T01:50:02.705Z,63.20
2018-09-24T01:52:32.170Z,63.00
2018-09-24T01:55:01.631Z,62.80
2018-09-24T01:57:31.115Z,62.70
2018-09-24T02:00:00.600Z,62.60
2018-09-24T02:02:30.065Z,62.30
2018-09-24T02:04:59.530Z,62.20
2018-09-24T02:07:29.079Z,62.10
2018-09-24T02:09:58.578Z,62.00
2018-09-24T02:12:28.092Z,61.60
2018-09-24T02:14:57.538Z,61.80
2018-09-24T02:17:26.996Z,61.80
2018-09-24T02:19:56.511Z,61.40
2018-09-24T02:22:31.018Z,61.30
2018-09-24T02:25:00.729Z,61.80
2018-09-24T02:27:30.164Z,61.00
2018-09-24T02:29:59.699Z,61.00
2018-09-24T02:32:29.171Z,61.00
2018-09-24T02:34:58.977Z,60.90
2018-09-24T02:37:28.549Z,60.80
2018-09-24T02:39:58.059Z,60.70
2018-09-24T02:42:27.539Z,60.50
2018-09-24T02:44:58.139Z,60.10
2018-09-24T02:47:31.127Z,59.80
2018-09-24T02:50:01.653Z,59.50
2018-09-24T02:52:31.118Z,59.20
2018-09-24T02:55:00.589Z,58.80
2018-09-24T02:57:30.040Z,58.40
2018-09-24T02:59:59.495Z,58.30
2018-09-24T03:02:29.011Z,58.20
2018-09-24T03:04:58.462Z,58.00
2018-09-24T03:07:27.981Z,57.60
2018-09-24T03:09:57.469Z,56.90
2018-09-24T03:12:27.245Z,56.80
2018-09-24T03:14:56.727Z,56.30
2018-09-24T03:17:26.212Z,55.90
2018-09-24T03:19:55.688Z,54.90
2018-09-24T03:22:25.995Z,54.80
2018-09-24T03:24:55.711Z,54.80
2018-09-24T03:27:25.272Z,54.90
2018-09-24T03:29:54.759Z,54.80
2018-09-24T03:32:24.231Z,54.80
2018-09-24T03:34:53.722Z,54.90
2018-09-24T03:37:23.183Z,54.80
2018-09-24T03:39:52.710Z,54.70
2018-09-24T03:42:22.225Z,54.70
2018-09-24T03:44:51.679Z,54.70
2018-09-24T03:47:21.164Z,54.70
2018-09-24T03:49:50.727Z,54.30
2018-09-24T03:52:20.320Z,54.30
2018-09-24T03:54:49.784Z,54.50
2018-09-24T03:57:19.291Z,54.30
2018-09-24T03:59:48.818Z,54.60
2018-09-24T04:02:18.354Z,54.50
2018-09-24T04:04:53.066Z,54.50
2018-09-24T04:07:27.763Z,54.10
2018-09-24T04:10:02.689Z,53.70
2018-09-24T04:12:37.455Z,53.70
2018-09-24T04:15:12.284Z,53.70
2018-09-24T04:17:47.040Z,53.40
2018-09-24T04:20:21.695Z,53.30
2018-09-24T04:22:56.459Z,52.10
2018-09-24T04:25:31.192Z,53.10
2018-09-24T04:28:05.895Z,53.20
2018-09-24T04:30:40.594Z,53.20
2018-09-24T04:33:15.302Z,53.20
2018-09-24T04:35:50.046Z,53.60
2018-09-24T04:38:24.738Z,53.60
2018-09-24T04:40:59.504Z,53.60
2018-09-24T04:43:34.275Z,53.70
2018-09-24T04:46:09.102Z,54.00
2018-09-24T04:48:43.797Z,54.00
2018-09-24T04:51:18.598Z,54.00
2018-09-24T04:53:53.375Z,53.90
2018-09-24T04:56:28.172Z,53.70
2018-09-24T04:59:02.999Z,53.40
2018-09-24T05:01:37.779Z,53.60
2018-09-24T05:04:12.595Z,53.80
2018-09-24T05:06:47.382Z,53.60
2018-09-24T05:09:22.107Z,53.40
2018-09-24T05:11:57.042Z,53.10
2018-09-24T05:14:31.855Z,53.20
2018-09-24T05:17:06.733Z,52.80
2018-09-24T05:19:41.464Z,53.10
2018-09-24T05:22:16.041Z,53.20
2018-09-24T05:24:50.899Z,53.10
2018-09-24T05:27:25.636Z,53.10
2018-09-24T05:30:00.369Z,53.00
2018-09-24T05:32:35.077Z,53.10
2018-09-24T05:35:09.851Z,52.80
2018-09-24T05:37:44.937Z,52.80
2018-09-24T05:40:19.653Z,52.70
2018-09-24T05:42:54.316Z,52.70
2018-09-24T05:45:29.095Z,52.60
2018-09-24T05:48:03.924Z,52.70
2018-09-24T05:50:38.758Z,52.60
2018-09-24T05:53:13.622Z,52.40
2018-09-24T05:55:48.325Z,52.30
2018-09-24T05:58:23.117Z,52.40
2018-09-24T06:00:57.919Z,52.30
2018-09-24T06:03:34.433Z,52.10
2018-09-24T06:06:09.223Z,51.80
2018-09-24T06:08:43.991Z,52.10
2018-09-24T06:11:18.839Z,51.40
2018-09-24T06:13:53.751Z,52.00
2018-09-24T06:16:28.583Z,52.00
2018-09-24T06:19:03.381Z,51.90
2018-09-24T06:21:38.163Z,51.00
2018-09-24T06:24:12.835Z,51.50
2018-09-24T06:26:47.618Z,51.40
2018-09-24T06:29:22.164Z,51.40
2018-09-24T06:31:57.043Z,51.40
2018-09-24T06:34:32.109Z,51.00
2018-09-24T06:37:06.717Z,51.10
2018-09-24T06:39:41.530Z,50.90
2018-09-24T06:42:16.406Z,50.60
2018-09-24T06:44:51.179Z,50.90
2018-09-24T06:47:25.979Z,50.60
2018-09-24T06:50:00.809Z,50.40
2018-09-24T06:52:35.316Z,50.50
2018-09-24T06:55:10.146Z,50.60
2018-09-24T06:57:44.674Z,50.60
2018-09-24T07:00:19.468Z,49.70
2018-09-24T07:02:54.217Z,50.00
2018-09-24T07:05:29.046Z,49.60
2018-09-24T07:08:03.732Z,50.10
2018-09-24T07:10:38.538Z,49.80
2018-09-24T07:13:13.426Z,49.50
2018-09-24T07:15:48.123Z,49.10
2018-09-24T07:18:22.935Z,48.30
2018-09-24T07:20:57.682Z,49.10
2018-09-24T07:23:32.401Z,48.40
2018-09-24T07:26:07.144Z,48.60
2018-09-24T07:28:41.917Z,48.50
2018-09-24T07:31:16.905Z,47.40
2018-09-24T07:33:51.738Z,47.70
2018-09-24T07:36:26.443Z,47.60
2018-09-24T07:39:01.090Z,47.50
2018-09-24T07:41:35.769Z,47.30
2018-09-24T07:44:10.464Z,46.90
2018-09-24T07:46:45.214Z,47.40
2018-09-24T07:49:19.938Z,47.60
2018-09-24T07:51:54.934Z,47.00
2018-09-24T07:54:29.704Z,46.40
2018-09-24T07:57:04.566Z,45.90
2018-09-24T07:59:39.709Z,45.30
2018-09-24T08:02:14.658Z,45.80
2018-09-24T08:04:49.430Z,45.90
2018-09-24T08:07:24.232Z,45.90
2018-09-24T08:09:58.925Z,46.00
2018-09-24T08:12:33.884Z,46.40
2018-09-24T08:15:08.891Z,46.20
2018-09-24T08:17:43.682Z,46.30
2018-09-24T08:20:18.530Z,45.30
2018-09-24T08:22:53.348Z,44.70
2018-09-24T08:25:28.111Z,44.60
2018-09-24T08:28:03.015Z,44.80
2018-09-24T08:30:37.795Z,45.00
2018-09-24T08:33:12.595Z,45.10
2018-09-24T08:35:47.314Z,45.10
2018-09-24T08:38:22.139Z,44.10
2018-09-24T08:40:56.874Z,44.70
2018-09-24T08:43:31.829Z,45.20
2018-09-24T08:46:06.843Z,44.20
2018-09-24T08:48:41.842Z,44.00
2018-09-24T08:51:16.859Z,43.70
2018-09-24T08:53:51.819Z,43.10
2018-09-24T08:56:26.663Z,42.70
2018-09-24T08:59:01.464Z,42.10
2018-09-24T09:01:36.490Z,42.60
2018-09-24T09:04:11.392Z,41.80
2018-09-24T09:06:46.349Z,40.50
2018-09-24T09:09:21.155Z,40.40
2018-09-24T09:11:56.003Z,38.50
2018-09-24T09:14:30.850Z,39.70
2018-09-24T09:17:05.698Z,41.50
2018-09-24T09:19:40.622Z,40.70
2018-09-24T09:22:15.501Z,40.70
2018-09-24T09:24:50.440Z,40.40
2018-09-24T09:27:25.300Z,40.60
2018-09-24T09:30:00.136Z,40.80
2018-09-24T09:32:35.008Z,40.80
2018-09-24T09:35:10.040Z,40.90
2018-09-24T09:37:45.288Z,39.50
2018-09-24T09:40:19.976Z,37.60
2018-09-24T09:42:54.898Z,39.30
2018-09-24T09:45:29.661Z,40.00
2018-09-24T09:48:04.673Z,38.70
2018-09-24T09:50:39.491Z,38.50
2018-09-24T09:53:14.510Z,37.70
2018-09-24T09:55:49.377Z,37.70
2018-09-24T09:58:24.338Z,37.70
2018-09-24T10:00:59.327Z,37.80
2018-09-24T10:03:34.206Z,37.80
2018-09-24T10:06:09.102Z,37.20
2018-09-24T10:08:44.061Z,37.90
2018-09-24T10:11:19.369Z,37.90
2018-09-24T10:13:54.331Z,36.50
2018-09-24T10:16:29.366Z,37.00
2018-09-24T10:19:04.504Z,36.30
2018-09-24T10:21:39.596Z,37.40
2018-09-24T10:24:14.456Z,37.90
2018-09-24T10:26:49.332Z,38.00
2018-09-24T10:29:24.177Z,37.20
2018-09-24T10:31:59.020Z,37.10
2018-09-24T10:34:33.786Z,36.60
2018-09-24T10:37:08.805Z,38.00
2018-09-24T10:39:43.998Z,38.60
2018-09-24T10:42:18.898Z,38.70
2018-09-24T10:44:53.661Z,38.50
2018-09-24T10:47:28.551Z,38.30
2018-09-24T10:50:03.362Z,34.00
2018-09-24T10:52:38.368Z,34.60
2018-09-24T10:55:13.579Z,32.70
2018-09-24T10:57:48.614Z,33.60
2018-09-24T11:00:23.584Z,33.40
2018-09-24T11:02:58.402Z,33.10
2018-09-24T11:05:33.388Z,33.80
2018-09-24T11:08:08.399Z,34.90
2018-09-24T11:10:43.133Z,35.70
2018-09-24T11:13:17.925Z,34.50
2018-09-24T11:15:52.931Z,32.60
2018-09-24T11:18:28.237Z,34.20
2018-09-24T11:21:03.118Z,32.20
2018-09-24T11:23:37.970Z,33.40
2018-09-24T11:26:12.839Z,32.40
2018-09-24T11:28:47.608Z,32.70
2018-09-24T11:31:22.541Z,32.80
2018-09-24T11:33:57.396Z,32.60
2018-09-24T11:36:32.320Z,32.20
2018-09-24T11:39:07.172Z,32.60
2018-09-24T11:41:42.002Z,31.60
2018-09-24T11:44:16.874Z,31.90
2018-09-24T11:46:51.872Z,32.50
2018-09-24T11:49:26.555Z,33.30
2018-09-24T11:52:01.369Z,33.60
2018-09-24T11:54:36.169Z,33.00
2018-09-24T11:57:11.159Z,33.30
2018-09-24T11:59:45.911Z,33.10
2018-09-24T12:02:20.844Z,32.70
2018-09-24T12:04:55.820Z,32.30
2018-09-24T12:07:37.520Z,31.80
2018-09-24T12:10:12.366Z,31.10
2018-09-24T12:12:47.108Z,30.20
2018-09-24T12:15:21.951Z,30.30
2018-09-24T12:17:56.962Z,30.80
2018-09-24T12:20:31.910Z,30.10
2018-09-24T12:23:06.862Z,30.10
2018-09-24T12:25:41.741Z,30.10
2018-09-24T12:28:16.579Z,30.10
2018-09-24T12:30:51.273Z,30.10
2018-09-24T12:33:26.190Z,30.50
2018-09-24T12:36:00.986Z,31.00
2018-09-24T12:38:35.851Z,30.80
2018-09-24T12:41:10.668Z,31.00
2018-09-24T12:43:45.622Z,31.60
2018-09-24T12:46:20.486Z,31.00
2018-09-24T12:48:55.189Z,31.60
2018-09-24T12:51:29.998Z,31.20
2018-09-24T12:54:04.863Z,31.20
2018-09-24T12:56:39.666Z,31.80
2018-09-24T12:59:14.551Z,31.50
2018-09-24T13:01:49.360Z,32.10
2018-09-24T13:04:24.350Z,32.30
2018-09-24T13:06:59.231Z,31.60
2018-09-24T13:09:34.128Z,31.00
2018-09-24T13:12:08.927Z,31.50
2018-09-24T13:14:43.687Z,32.20
2018-09-24T13:17:18.707Z,31.70
2018-09-24T13:19:53.536Z,30.50
2018-09-24T13:22:28.421Z,30.00
2018-09-24T13:25:03.469Z,29.80
2018-09-24T13:27:38.332Z,30.10
2018-09-24T13:30:13.266Z,29.90
2018-09-24T13:32:48.375Z,29.80
2018-09-24T13:35:23.269Z,30.60
2018-09-24T13:37:58.261Z,30.60
2018-09-24T13:40:33.096Z,30.00
2018-09-24T13:43:07.971Z,29.70
2018-09-24T13:45:42.724Z,30.30
2018-09-24T13:48:17.363Z,30.80
2018-09-24T13:50:52.077Z,30.60
2018-09-24T13:53:27.004Z,29.80
2018-09-24T13:56:01.713Z,30.80
2018-09-24T13:58:36.689Z,29.60
2018-09-24T14:01:11.578Z,29.60
2018-09-24T14:03:46.489Z,29.60
2018-09-24T14:06:21.375Z,29.60
2018-09-24T14:08:56.190Z,29.70
2018-09-24T14:11:31.027Z,28.40
2018-09-24T14:14:05.773Z,28.20
2018-09-24T14:16:40.652Z,27.80
2018-09-24T14:19:15.491Z,28.30
2018-09-24T14:21:50.367Z,28.30
2018-09-24T14:24:25.257Z,28.80
2018-09-24T14:27:00.077Z,27.40
2018-09-24T14:29:34.920Z,27.90
2018-09-24T14:32:09.752Z,28.20
2018-09-24T14:34:44.477Z,28.60
2018-09-24T14:37:19.381Z,29.00
2018-09-24T14:39:54.419Z,28.10
2018-09-24T14:42:29.226Z,29.00
2018-09-24T14:45:04.050Z,29.60
2018-09-24T14:47:38.793Z,29.40
2018-09-24T14:50:13.792Z,29.00
2018-09-24T14:52:48.627Z,29.00
2018-09-24T14:55:23.563Z,29.20
2018-09-24T14:57:58.356Z,29.40
2018-09-24T15:00:33.221Z,29.40
2018-09-24T15:03:08.036Z,29.80
2018-09-24T15:08:22.679Z,29.60
2018-09-24T15:10:57.480Z,29.80
2018-09-24T15:13:32.317Z,29.70
2018-09-24T15:16:07.194Z,29.90
2018-09-24T15:18:42.105Z,30.20
2018-09-24T15:21:17.102Z,30.50
2018-09-24T15:23:51.814Z,30.50
2018-09-24T15:26:26.650Z,30.20
2018-09-24T15:29:01.454Z,31.10
2018-09-24T15:31:36.324Z,30.80
2018-09-24T15:34:11.245Z,31.10
2018-09-24T15:36:46.143Z,31.20
2018-09-24T15:39:21.044Z,31.40
2018-09-24T15:41:55.991Z,31.50
2018-09-24T15:44:30.948Z,31.80
2018-09-24T15:47:05.974Z,32.10
2018-09-24T15:49:40.882Z,32.20
2018-09-24T15:52:15.739Z,32.70
2018-09-24T15:54:50.542Z,33.00
2018-09-24T15:57:25.400Z,33.20
2018-09-24T16:00:00.253Z,33.60
2018-09-24T16:02:35.081Z,33.70
2018-09-24T16:05:10.087Z,33.50
2018-09-24T16:07:44.924Z,33.60
2018-09-24T16:10:19.803Z,33.70
2018-09-24T16:12:54.828Z,33.60
2018-09-24T16:15:29.848Z,33.60
2018-09-24T16:18:04.790Z,33.20
2018-09-24T16:20:39.626Z,33.00
2018-09-24T16:23:14.484Z,32.50
2018-09-24T16:25:49.364Z,32.10
2018-09-24T16:28:24.209Z,31.90
2018-09-24T16:30:59.079Z,31.60
2018-09-24T16:33:33.971Z,31.90
2018-09-24T16:36:08.852Z,31.70
2018-09-24T16:38:43.750Z,31.90
2018-09-24T16:41:18.551Z,31.60
2018-09-24T16:43:53.303Z,31.50
2018-09-24T16:46:28.015Z,31.60
2018-09-24T16:49:03.540Z,31.70
2018-09-24T16:51:38.531Z,31.90
2018-09-24T16:54:18.586Z,32.60
2018-09-24T16:56:54.177Z,31.80
2018-09-24T16:59:28.854Z,32.20
2018-09-24T17:02:03.764Z,32.30
2018-09-24T17:04:38.537Z,32.30
2018-09-24T17:07:13.248Z,32.40
2018-09-24T17:09:48.080Z,32.60
2018-09-24T17:12:22.909Z,32.70
2018-09-24T17:14:57.865Z,32.70
2018-09-24T17:17:32.666Z,32.50
2018-09-24T17:20:07.472Z,32.60
2018-09-24T17:22:42.343Z,32.90
2018-09-24T17:25:17.087Z,32.80
2018-09-24T17:27:51.867Z,33.20
2018-09-24T17:30:26.678Z,33.10
2018-09-24T17:33:01.503Z,33.20
2018-09-24T17:35:36.516Z,33.30
2018-09-24T17:38:11.418Z,33.20
2018-09-24T17:40:46.237Z,33.60
2018-09-24T17:43:21.001Z,33.50
2018-09-24T17:45:55.974Z,33.60
2018-09-24T17:48:30.813Z,33.60
2018-09-24T17:51:05.634Z,34.50
2018-09-24T17:53:40.421Z,34.70
2018-09-24T17:56:15.284Z,34.70
2018-09-24T17:58:50.086Z,34.80
2018-09-24T18:01:24.891Z,34.90
2018-09-24T18:03:59.685Z,34.90
2018-09-24T18:06:34.473Z,34.90
2018-09-24T18:09:09.315Z,35.00
2018-09-24T18:11:44.211Z,35.00
2018-09-24T18:14:18.981Z,35.00
2018-09-24T18:16:53.777Z,35.10
2018-09-24T18:19:28.588Z,35.00
2018-09-24T18:22:03.241Z,35.20
2018-09-24T18:24:38.038Z,35.40
2018-09-24T18:27:12.782Z,35.40
2018-09-24T18:29:47.596Z,35.50
2018-09-24T18:32:22.304Z,35.50
2018-09-24T18:34:57.126Z,35.80
2018-09-24T18:37:31.935Z,35.70
2018-09-24T18:40:06.642Z,35.80
2018-09-24T18:42:41.593Z,36.20
2018-09-24T18:45:16.528Z,36.20
2018-09-24T18:47:51.600Z,36.50
2018-09-24T18:50:26.832Z,36.50
2018-09-24T18:53:02.277Z,36.50
2018-09-24T18:55:37.625Z,36.40
2018-09-24T18:58:12.572Z,36.40
2018-09-24T19:00:47.777Z,36.40
2018-09-24T19:03:22.685Z,36.40
2018-09-24T19:05:57.614Z,36.30
2018-09-24T19:08:32.598Z,36.30
2018-09-24T19:11:07.255Z,36.30
2018-09-24T19:13:42.041Z,36.20
2018-09-24T19:16:16.895Z,36.30
2018-09-24T19:18:51.633Z,36.20
2018-09-24T19:21:26.522Z,36.20
2018-09-24T19:24:01.195Z,36.10
2018-09-24T19:26:35.949Z,36.20
2018-09-24T19:29:10.913Z,36.10
2018-09-24T19:31:45.815Z,36.20
2018-09-24T19:34:20.661Z,36.00
2018-09-24T19:36:55.632Z,36.00
2018-09-24T19:39:30.269Z,36.10
2018-09-24T19:42:05.215Z,36.00
2018-09-24T19:44:40.070Z,36.00
2018-09-24T19:47:14.925Z,36.10
2018-09-24T19:49:50.007Z,36.00
2018-09-24T19:52:24.689Z,36.20
2018-09-24T19:54:59.517Z,36.30
2018-09-24T19:57:34.302Z,36.40
2018-09-24T20:00:09.585Z,36.30
2018-09-24T20:02:44.354Z,36.30
2018-09-24T20:05:19.034Z,36.20
2018-09-24T20:07:53.713Z,37.00
2018-09-24T20:10:28.450Z,36.30
2018-09-24T20:13:04.069Z,36.30
2018-09-24T20:15:38.869Z,36.30
2018-09-24T20:18:13.512Z,36.30
2018-09-24T20:20:48.183Z,36.30
2018-09-24T20:23:22.932Z,36.40
2018-09-24T20:25:57.719Z,36.40
2018-09-24T20:28:32.386Z,36.30
2018-09-24T20:31:07.082Z,36.60
2018-09-24T20:33:42.430Z,36.50
2018-09-24T20:36:17.871Z,36.60
2018-09-24T20:38:52.912Z,36.70
2018-09-24T20:41:27.749Z,36.80
2018-09-24T20:44:02.702Z,36.80
2018-09-24T20:46:37.466Z,36.80
2018-09-24T20:49:12.243Z,36.90
2018-09-24T20:51:47.015Z,37.00
2018-09-24T20:54:21.709Z,36.90
2018-09-24T20:56:56.381Z,36.80
2018-09-24T20:59:31.641Z,36.80
2018-09-24T21:02:06.327Z,36.80
2018-09-24T21:04:41.613Z,36.90
2018-09-24T21:07:17.109Z,36.70
2018-09-24T21:09:51.976Z,36.70
2018-09-24T21:12:26.782Z,36.70
2018-09-24T21:15:02.232Z,37.30
2018-09-24T21:17:38.043Z,36.60
2018-09-24T21:20:12.839Z,36.70
2018-09-24T21:22:47.477Z,36.70
2018-09-24T21:25:22.095Z,36.60
2018-09-24T21:27:56.820Z,36.70
2018-09-24T21:30:31.555Z,36.70
2018-09-24T21:33:06.342Z,36.70
2018-09-24T21:35:41.100Z,36.80
2018-09-24T21:38:15.891Z,36.90
2018-09-24T21:40:50.667Z,37.10
2018-09-24T21:43:25.487Z,37.10
2018-09-24T21:46:00.260Z,38.00
2018-09-24T21:48:35.133Z,37.60
2018-09-24T21:51:09.829Z,37.60
2018-09-24T21:53:44.604Z,37.80
2018-09-24T21:56:19.343Z,37.90
2018-09-24T21:58:54.102Z,38.10
2018-09-24T22:01:28.853Z,38.40
2018-09-24T22:04:03.626Z,38.30
2018-09-24T22:06:38.366Z,38.50
2018-09-24T22:09:14.118Z,38.70
2018-09-24T22:11:48.912Z,38.70
2018-09-24T22:14:23.672Z,38.90
2018-09-24T22:16:58.451Z,38.90
2018-09-24T22:19:33.152Z,39.00
2018-09-24T22:22:07.922Z,39.00
2018-09-24T22:24:42.692Z,39.10
2018-09-24T22:27:17.483Z,39.10
2018-09-24T22:29:52.203Z,39.10
2018-09-24T22:32:26.914Z,39.20
2018-09-24T22:35:01.529Z,39.10
2018-09-24T22:37:36.771Z,39.30
2018-09-24T22:40:12.409Z,39.30
2018-09-24T22:42:47.268Z,39.40
2018-09-24T22:45:21.915Z,39.60
2018-09-24T22:47:56.861Z,39.60
2018-09-24T22:50:31.523Z,39.60
2018-09-24T22:53:06.203Z,39.70
2018-09-24T22:55:40.908Z,39.80
2018-09-24T22:58:16.512Z,39.90
2018-09-24T23:00:51.847Z,40.00
2018-09-24T23:03:26.550Z,40.40
2018-09-24T23:06:01.149Z,40.20
2018-09-24T23:08:35.930Z,40.30
2018-09-24T23:11:10.652Z,40.90
2018-09-24T23:13:45.307Z,40.60
2018-09-24T23:16:20.061Z,40.60
2018-09-24T23:18:54.878Z,40.80
2018-09-24T23:21:29.918Z,40.90
2018-09-24T23:24:04.588Z,41.00
2018-09-24T23:26:39.337Z,40.90
2018-09-24T23:29:14.094Z,40.90
2018-09-24T23:31:48.900Z,41.40
2018-09-24T23:34:23.599Z,41.20
2018-09-24T23:36:58.267Z,41.40
2018-09-24T23:39:32.981Z,41.50
2018-09-24T23:42:07.538Z,41.60
2018-09-24T23:44:42.069Z,41.60
2018-09-24T23:47:16.819Z,41.70
2018-09-24T23:49:51.504Z,41.80
2018-09-24T23:52:26.129Z,41.80
2018-09-24T23:55:00.797Z,42.60
2018-09-24T23:57:35.472Z,41.90
